Time;durP1;ratioP1;P1;durP2;ratioP2;P2;SDS_P1;SDS_P2;PMS_P1;PMS_P2;Temp;Humidity;BMP_temperature;BMP_pressure;BME280_temperature;BME280_humidity;BME280_pressure;Samples;Min_cycle;Max_cycle;Signal;HPM_P1;HPM_P2
2023/05/03 00:01:36;;;;;;;14.97;5.23;;;3.10;52.60;;;;;;5074650;28;20105;-25
2023/05/03 00:04:02;;;;;;;5.07;3.50;;;3.30;99.90;;;;;;5074927;28;20056;-25
2023/05/03 00:06:28;;;;;;;10.20;4.07;;;3.40;99.90;;;;;;5074543;28;20051;-26
2023/05/03 00:08:54;;;;;;;6.50;4.13;;;3.40;99.90;;;;;;5074521;28;20044;-26
2023/05/03 00:11:20;;;;;;;10.35;4.15;;;3.50;99.90;;;;;;5074525;28;20072;-25
2023/05/03 00:13:46;;;;;;;8.30;3.83;;;3.60;99.90;;;;;;5073468;28;20102;-26
2023/05/03 00:16:12;;;;;;;8.60;3.50;;;3.60;99.90;;;;;;5075125;28;20409;-26
2023/05/03 00:18:38;;;;;;;7.28;4.57;;;3.70;99.90;;;;;;5073061;28;20376;-25
2023/05/03 00:21:04;;;;;;;6.85;3.17;;;3.80;99.90;;;;;;5074144;28;20106;-26
2023/05/03 00:23:30;;;;;;;6.90;3.55;;;3.90;99.90;;;;;;5074234;28;20482;-26
2023/05/03 00:25:57;;;;;;;7.55;3.70;;;3.90;99.90;;;;;;5074075;28;20048;-26
2023/05/03 00:28:24;;;;;;;7.80;3.80;;;4.00;99.90;;;;;;5074172;28;20084;-26
2023/05/03 00:30:50;;;;;;;6.43;3.80;;;4.10;99.90;;;;;;5074124;28;20131;-25
2023/05/03 00:33:16;;;;;;;10.52;4.15;;;4.10;99.90;;;;;;5074075;28;20048;-25
2023/05/03 00:35:42;;;;;;;10.27;3.70;;;4.20;99.90;;;;;;5073932;28;20043;-26
2023/05/03 00:38:08;;;;;;;7.65;3.13;;;4.20;99.90;;;;;;5073989;28;20047;-25
2023/05/03 00:40:34;;;;;;;4.53;2.90;;;4.20;99.90;;;;;;5074255;28;20044;-27
2023/05/03 00:43:00;;;;;;;6.07;2.97;;;4.30;99.90;;;;;;5073994;28;20471;-26
2023/05/03 00:45:25;;;;;;;7.22;2.70;;;4.30;99.90;;;;;;5074738;28;20127;-26
2023/05/03 00:47:51;;;;;;;5.15;2.70;;;4.40;99.90;;;;;;5073793;28;20521;-25
2023/05/03 00:53:58;;;;;;;6.47;2.53;;;4.40;99.90;;;;;;5077096;28;20097;-25
2023/05/03 00:56:25;;;;;;;7.10;2.85;;;4.40;99.90;;;;;;5075655;28;20044;-24
2023/05/03 00:58:51;;;;;;;6.18;2.50;;;4.50;99.90;;;;;;5075503;28;20041;-26
2023/05/03 01:01:17;;;;;;;5.70;3.08;;;4.50;99.90;;;;;;5075819;28;20045;-25
2023/05/03 01:03:45;;;;;;;4.28;2.38;;;4.50;99.90;;;;;;5077341;28;20078;-25
2023/05/03 01:06:48;;;;;;;4.65;2.78;;;4.50;99.90;;;;;;5074703;28;20058;-27
2023/05/03 01:09:26;;;;;;;4.35;2.67;;;4.50;99.90;;;;;;5089001;28;20048;-26
2023/05/03 01:12:13;;;;;;;4.68;2.60;;;4.50;99.90;;;;;;5089385;28;20069;-25
2023/05/03 01:14:57;;;;;;;5.28;2.63;;;4.50;99.90;;;;;;5075869;28;20515;-25
2023/05/03 01:17:34;;;;;;;4.55;2.75;;;4.50;99.90;;;;;;5072854;28;20410;-26
2023/05/03 01:20:07;;;;;;;3.80;2.63;;;4.50;99.90;;;;;;5086603;28;20546;-26
2023/05/03 01:22:38;;;;;;;;;;;4.50;99.90;;;;;;5094686;28;20055;-26
2023/05/03 01:25:06;;;;;;;5.50;2.70;;;4.50;99.90;;;;;;5093952;28;19919;-26
2023/05/03 01:27:32;;;;;;;5.55;2.72;;;4.40;99.40;;;;;;5093633;28;20520;-26
2023/05/03 01:29:58;;;;;;;4.80;2.47;;;4.50;91.60;;;;;;5087684;28;20091;-26
2023/05/03 01:32:33;;;;;;;3.97;2.42;;;4.40;95.90;;;;;;5072255;28;20041;-26
2023/05/03 01:35:14;;;;;;;5.32;2.80;;;4.50;99.90;;;;;;5073937;28;20052;-25
2023/05/03 01:37:41;;;;;;;6.67;2.80;;;4.60;99.90;;;;;;5073432;28;20048;-26
2023/05/03 01:40:10;;;;;;;3.92;2.78;;;4.60;99.90;;;;;;5067457;28;20045;-26
2023/05/03 01:42:37;;;;;;;6.57;3.00;;;4.70;99.90;;;;;;5073357;28;20049;-26
2023/05/03 01:45:06;;;;;;;7.47;2.20;;;4.80;99.90;;;;;;5073364;28;20079;-26
2023/05/03 01:47:32;;;;;;;3.25;2.60;;;4.80;99.90;;;;;;5076831;28;20044;-25
2023/05/03 01:49:58;;;;;;;5.57;2.92;;;4.80;99.90;;;;;;5093442;28;20466;-26
2023/05/03 01:52:26;;;;;;;3.58;2.65;;;4.90;99.90;;;;;;5088756;28;20048;-25
2023/05/03 01:54:51;;;;;;;5.97;2.67;;;5.00;99.90;;;;;;5081770;28;20047;-26
2023/05/03 01:57:17;;;;;;;5.78;2.97;;;5.10;99.90;;;;;;5092408;28;20047;-26
2023/05/03 01:59:43;;;;;;;6.00;2.55;;;5.10;99.90;;;;;;5090721;28;20130;-24
2023/05/03 02:02:08;;;;;;;2.75;2.47;;;5.10;99.90;;;;;;5074858;28;20090;-26
2023/05/03 02:04:35;;;;;;;2.97;2.58;;;5.00;99.90;;;;;;5084040;28;20085;-26
2023/05/03 02:07:00;;;;;;;4.90;2.35;;;5.10;99.90;;;;;;5097152;28;20105;-26
2023/05/03 02:09:26;;;;;;;4.97;2.58;;;5.10;99.90;;;;;;5096273;28;20043;-25
2023/05/03 02:11:52;;;;;;;7.57;2.67;;;5.10;99.90;;;;;;5097617;28;20044;-27
2023/05/03 02:14:17;;;;;;;2.95;2.15;;;5.20;99.90;;;;;;5095813;28;20048;-27
2023/05/03 02:16:43;;;;;;;4.63;2.55;;;5.20;99.90;;;;;;5096857;28;20050;-26
2023/05/03 02:19:09;;;;;;;5.40;2.45;;;5.20;99.90;;;;;;5093934;28;20059;-27
2023/05/03 02:21:36;;;;;;;7.32;3.00;;;5.30;99.90;;;;;;5079664;28;20052;-27
2023/05/03 02:24:02;;;;;;;5.30;2.15;;;5.30;99.90;;;;;;5096816;28;20056;-26
2023/05/03 02:26:28;;;;;;;4.70;2.15;;;5.30;99.90;;;;;;5096302;28;20040;-26
2023/05/03 02:28:55;;;;;;;3.08;1.98;;;5.40;99.90;;;;;;5093155;28;20067;-25
2023/05/03 02:31:21;;;;;;;4.07;2.42;;;5.40;99.90;;;;;;5094797;28;20047;-26
2023/05/03 02:33:47;;;;;;;3.78;2.40;;;5.40;99.90;;;;;;5097196;28;20113;-26
2023/05/03 02:36:12;;;;;;;5.07;2.10;;;5.30;99.90;;;;;;5096519;28;20084;-27
2023/05/03 02:38:38;;;;;;;3.42;2.10;;;5.30;99.90;;;;;;5097109;28;20471;-26
2023/05/03 02:41:04;;;;;;;3.35;2.42;;;5.30;99.90;;;;;;5097339;28;20051;-26
2023/05/03 02:43:30;;;;;;;6.68;2.67;;;5.30;99.90;;;;;;5086690;28;20483;-26
2023/05/03 02:45:56;;;;;;;3.78;2.17;;;5.40;99.90;;;;;;5074824;28;20048;-28
2023/05/03 02:48:21;;;;;;;10.23;2.38;;;5.40;99.90;;;;;;5086407;28;20043;-26
2023/05/03 02:50:47;;;;;;;3.85;1.90;;;5.50;94.10;;;;;;5096294;28;20066;-26
2023/05/03 02:53:13;;;;;;;3.33;1.52;;;5.40;74.40;;;;;;5096588;28;20090;-26
2023/05/03 02:55:39;;;;;;;3.83;1.88;;;5.50;35.80;;;;;;5096735;28;20391;-27
2023/05/03 02:58:06;;;;;;;4.93;2.13;;;5.50;8.90;;;;;;5096213;28;20390;-26
2023/05/03 03:00:32;;;;;;;2.80;1.75;;;5.50;1.00;;;;;;5089751;28;20064;-25
2023/05/03 03:02:58;;;;;;;2.47;1.70;;;5.50;1.00;;;;;;5074906;28;20467;-27
2023/05/03 03:05:24;;;;;;;4.47;1.77;;;5.40;1.00;;;;;;5075655;28;20060;-27
2023/05/03 03:07:50;;;;;;;4.85;1.27;;;5.40;1.00;;;;;;5075819;28;20098;-27
2023/05/03 03:10:16;;;;;;;2.50;1.48;;;5.40;1.00;;;;;;5075766;28;20131;-26
2023/05/03 03:12:42;;;;;;;5.43;1.60;;;5.40;1.00;;;;;;5075685;28;20048;-26
2023/05/03 03:15:08;;;;;;;4.30;1.50;;;5.50;1.00;;;;;;5075211;28;20084;-27
2023/05/03 03:17:37;;;;;;;3.40;1.40;;;5.50;1.00;;;;;;5081379;28;20148;-25
2023/05/03 03:20:05;;;;;;;5.15;1.60;;;5.50;99.90;;;;;;5096340;28;20051;-27
2023/05/03 03:22:31;;;;;;;3.65;1.45;;;5.40;99.90;;;;;;5095775;28;20052;-27
2023/05/03 03:24:57;;;;;;;7.28;1.50;;;5.40;99.90;;;;;;5095652;28;20046;-27
2023/05/03 03:27:22;;;;;;;5.32;1.50;;;5.40;99.90;;;;;;5095730;28;20047;-26
2023/05/03 03:29:48;;;;;;;4.70;1.10;;;5.40;99.90;;;;;;5095579;28;20471;-27
2023/05/03 03:32:14;;;;;;;4.80;1.63;;;5.30;99.90;;;;;;5095573;28;20047;-26
2023/05/03 03:34:40;;;;;;;4.40;1.40;;;5.30;99.90;;;;;;5093629;28;20052;-27
2023/05/03 03:37:06;;;;;;;6.38;2.13;;;5.20;99.90;;;;;;5094167;28;20375;-27
2023/05/03 03:39:31;;;;;;;4.03;1.33;;;5.10;99.90;;;;;;5094675;28;20473;-27
2023/05/03 03:41:57;;;;;;;3.63;1.70;;;5.10;99.90;;;;;;5095593;28;20474;-27
2023/05/03 03:44:23;;;;;;;6.80;1.60;;;5.10;99.90;;;;;;5096073;28;20052;-27
2023/05/03 03:46:48;;;;;;;4.18;1.60;;;5.10;99.90;;;;;;5095219;28;20559;-26
2023/05/03 03:49:14;;;;;;;5.07;1.50;;;5.10;99.90;;;;;;5076192;28;20055;-27
2023/05/03 03:51:40;;;;;;;5.03;1.77;;;5.20;99.90;;;;;;5103574;28;20113;-25
2023/05/03 03:54:05;;;;;;;3.97;1.65;;;5.20;99.90;;;;;;5074826;28;20395;-27
2023/05/03 03:56:31;;;;;;;8.55;1.50;;;5.20;96.00;;;;;;5074353;28;20040;-27
2023/05/03 03:58:57;;;;;;;5.53;1.40;;;5.20;58.00;;;;;;5074769;28;20051;-26
2023/05/03 04:01:22;;;;;;;5.53;1.70;;;5.10;25.90;;;;;;5074393;28;20052;-26
2023/05/03 04:03:48;;;;;;;6.25;1.70;;;5.10;11.70;;;;;;5074634;28;20139;-27
2023/05/03 04:06:14;;;;;;;5.25;1.83;;;4.90;1.00;;;;;;5074825;28;20041;-27
2023/05/03 04:08:40;;;;;;;3.28;1.40;;;4.90;5.00;;;;;;5075005;28;20049;-25
2023/05/03 04:11:11;;;;;;;6.43;1.50;;;4.80;17.40;;;;;;5075024;28;20041;-27
2023/05/03 04:13:37;;;;;;;3.13;1.52;;;4.80;34.80;;;;;;5073475;28;20051;-27
2023/05/03 04:16:03;;;;;;;4.55;1.67;;;4.70;81.40;;;;;;5074376;28;20044;-27
2023/05/03 04:18:29;;;;;;;3.78;1.63;;;4.70;95.00;;;;;;5072979;28;20060;-27
2023/05/03 04:20:54;;;;;;;3.78;1.80;;;4.60;99.90;;;;;;5074305;28;20101;-27
2023/05/03 04:23:20;;;;;;;3.50;1.55;;;4.70;99.90;;;;;;5073313;28;20055;-26
2023/05/03 04:25:47;;;;;;;4.78;1.58;;;4.70;99.90;;;;;;5081075;28;20071;-25
2023/05/03 04:28:14;;;;;;;4.40;0.82;;;4.80;99.90;;;;;;5093680;28;20427;-26
2023/05/03 04:30:42;;;;;;;4.15;0.90;;;5.00;1.00;;;;;;5094454;28;20127;-25
2023/05/03 04:33:08;;;;;;;3.85;0.95;;;5.30;1.00;;;;;;5094888;28;20056;-25
2023/05/03 04:35:35;;;;;;;3.38;0.68;;;5.50;1.00;;;;;;5093254;28;20517;-26
2023/05/03 04:38:02;;;;;;;2.80;0.80;;;5.70;1.00;;;;;;5095128;28;20083;-26
2023/05/03 04:40:28;;;;;;;5.18;1.20;;;5.70;1.00;;;;;;5093193;28;20481;-26
2023/05/03 04:42:56;;;;;;;3.42;1.33;;;;;;;;;;5092040;28;20054;-25
2023/05/03 04:45:22;;;;;;;5.82;1.95;;;;;;;;;;5077188;28;20086;-23
2023/05/03 04:47:48;;;;;;;2.88;1.20;;;6.00;1.00;;;;;;5088039;28;20429;-25
2023/05/03 04:50:14;;;;;;;3.65;1.05;;;5.90;1.00;;;;;;5073856;28;20044;-25
2023/05/03 04:52:40;;;;;;;1.48;1.02;;;6.00;1.00;;;;;;5072569;28;20084;-27
2023/05/03 04:55:06;;;;;;;3.47;1.48;;;6.00;1.00;;;;;;5073724;28;20094;-26
2023/05/03 04:57:33;;;;;;;2.67;1.13;;;6.10;1.00;;;;;;5073667;28;20040;-25
2023/05/03 04:59:58;;;;;;;3.53;1.23;;;6.10;1.00;;;;;;5073615;28;20132;-25
2023/05/03 05:02:25;;;;;;;4.80;1.15;;;6.20;1.00;;;;;;5073508;28;20120;-25
2023/05/03 05:04:52;;;;;;;3.30;1.50;;;6.20;1.00;;;;;;5072344;28;20048;-25
2023/05/03 05:07:18;;;;;;;5.30;1.35;;;6.30;1.00;;;;;;5073521;28;20127;-26
2023/05/03 05:09:43;;;;;;;4.78;1.40;;;6.40;1.00;;;;;;5073547;28;20128;-26
2023/05/03 05:12:09;;;;;;;3.20;1.20;;;6.50;1.00;;;;;;5073551;28;20479;-26
2023/05/03 05:14:35;;;;;;;2.55;1.10;;;6.50;1.00;;;;;;5073975;28;20052;-26
2023/05/03 05:17:01;;;;;;;4.03;1.10;;;6.60;1.00;;;;;;5056298;28;20045;-26
2023/05/03 05:19:26;;;;;;;5.43;1.05;;;6.70;1.00;;;;;;5073873;28;20060;-25
2023/05/03 05:21:52;;;;;;;2.92;1.30;;;6.80;1.00;;;;;;5072247;28;20094;-26
2023/05/03 05:24:18;;;;;;;4.68;1.00;;;7.00;1.00;;;;;;5073466;28;20135;-26
2023/05/03 05:26:43;;;;;;;3.97;0.90;;;7.10;99.90;;;;;;5072871;28;20049;-26
2023/05/03 05:29:09;;;;;;;4.22;1.33;;;7.20;99.90;;;;;;5055753;28;20052;-25
2023/05/03 05:31:35;;;;;;;2.83;1.27;;;7.20;99.90;;;;;;5074203;28;20045;-25
2023/05/03 05:34:02;;;;;;;3.97;1.35;;;7.30;99.90;;;;;;5072678;28;20410;-25
2023/05/03 05:36:29;;;;;;;2.47;1.23;;;7.30;99.90;;;;;;5073017;28;20479;-25
2023/05/03 05:38:55;;;;;;;3.00;0.90;;;7.40;1.00;;;;;;5075754;28;20040;-25
2023/05/03 05:41:21;;;;;;;7.47;1.42;;;7.40;99.90;;;;;;5077348;28;20056;-25
2023/05/03 05:43:47;;;;;;;6.30;1.05;;;7.40;99.90;;;;;;5077350;28;20471;-25
2023/05/03 05:46:13;;;;;;;4.10;1.15;;;7.50;99.90;;;;;;5077274;28;20482;-25
2023/05/03 05:48:40;;;;;;;5.22;0.93;;;7.60;99.90;;;;;;5088580;28;20075;-25
2023/05/03 05:51:06;;;;;;;5.65;1.40;;;7.70;99.90;;;;;;5086319;28;20055;-25
2023/05/03 05:53:32;;;;;;;5.38;1.50;;;7.80;99.90;;;;;;5077160;28;20049;-25
2023/05/03 05:55:57;;;;;;;4.18;1.10;;;7.90;99.90;;;;;;5076959;28;20124;-25
2023/05/03 05:58:23;;;;;;;3.70;1.08;;;8.00;99.90;;;;;;5077097;28;20045;-25
2023/05/03 06:00:50;;;;;;;5.40;1.17;;;7.90;99.90;;;;;;5076999;28;20486;-25
2023/05/03 06:03:15;;;;;;;1.83;0.73;;;8.00;32.40;;;;;;5076892;28;20044;-25
2023/05/03 06:05:41;;;;;;;2.30;0.68;;;8.00;1.00;;;;;;5076832;28;20114;-25
2023/05/03 06:08:09;;;;;;;6.70;1.40;;;7.90;1.00;;;;;;5077496;28;20047;-24
2023/05/03 06:10:35;;;;;;;4.68;1.05;;;8.00;1.00;;;;;;5077138;28;20049;-25
2023/05/03 06:13:01;;;;;;;2.30;0.90;;;8.10;1.00;;;;;;5076739;28;20049;-24
2023/05/03 06:15:27;;;;;;;6.50;0.70;;;8.10;99.90;;;;;;5076673;28;20044;-24
2023/05/03 06:17:52;;;;;;;6.03;1.38;;;8.20;99.90;;;;;;5077189;28;20056;-24
2023/05/03 06:20:18;;;;;;;5.35;1.23;;;8.20;99.90;;;;;;5076615;28;20115;-26
2023/05/03 06:22:44;;;;;;;3.42;1.30;;;8.40;99.90;;;;;;5076635;28;20045;-26
2023/05/03 06:25:12;;;;;;;3.92;1.58;;;8.40;99.90;;;;;;5077020;28;20041;-26
2023/05/03 06:27:37;;;;;;;3.88;0.85;;;8.40;99.90;;;;;;5077193;28;20044;-27
2023/05/03 06:30:04;;;;;;;4.93;0.70;;;8.50;99.90;;;;;;5075523;28;20461;-26
2023/05/03 06:32:31;;;;;;;5.10;1.10;;;8.70;99.90;;;;;;5076405;28;20433;-26
2023/05/03 06:34:58;;;;;;;3.60;1.10;;;8.90;99.90;;;;;;5076887;28;20098;-26
2023/05/03 06:37:25;;;;;;;2.80;0.88;;;9.00;99.90;;;;;;5076372;28;20047;-26
2023/05/03 06:39:51;;;;;;;3.13;1.38;;;9.20;99.90;;;;;;5076328;28;20397;-26
2023/05/03 06:42:16;;;;;;;2.88;0.90;;;9.30;68.80;;;;;;5076803;28;20127;-26
2023/05/03 06:44:42;;;;;;;2.30;0.57;;;9.50;4.80;;;;;;5075004;28;20064;-26
2023/05/03 06:47:08;;;;;;;4.60;0.85;;;9.60;2.90;;;;;;5075499;28;20075;-24
2023/05/03 06:49:34;;;;;;;3.25;0.70;;;9.80;1.00;;;;;;5095534;28;20059;-26
2023/05/03 06:51:59;;;;;;;2.75;0.60;;;9.90;99.90;;;;;;5096276;28;20044;-26
2023/05/03 06:54:25;;;;;;;4.47;1.40;;;10.10;1.00;;;;;;5095534;28;20144;-25
2023/05/03 06:56:51;;;;;;;3.90;1.23;;;10.10;44.70;;;;;;5096084;28;20040;-26
2023/05/03 06:59:17;;;;;;;3.45;0.63;;;10.30;6.40;;;;;;5096461;28;20048;-26
2023/05/03 07:01:42;;;;;;;5.45;0.65;;;10.40;1.00;;;;;;5095244;28;20379;-27
2023/05/03 07:04:08;;;;;;;2.63;0.57;;;10.40;1.00;;;;;;5096956;28;20480;-26
2023/05/03 07:06:34;;;;;;;4.65;0.52;;;10.50;1.00;;;;;;5095961;28;20535;-26
2023/05/03 07:09:00;;;;;;;3.13;0.70;;;10.50;99.90;;;;;;5096063;28;20083;-26
2023/05/03 07:11:25;;;;;;;7.00;1.48;;;10.70;1.00;;;;;;5095962;28;20478;-26
2023/05/03 07:13:52;;;;;;;5.10;0.70;;;10.70;99.90;;;;;;5096206;28;20079;-26
2023/05/03 07:16:18;;;;;;;3.63;0.90;;;10.80;99.90;;;;;;5095013;28;20052;-27
2023/05/03 07:18:45;;;;;;;2.80;0.60;;;10.80;1.00;;;;;;5095423;28;20099;-26
2023/05/03 07:21:12;;;;;;;3.05;0.60;;;10.90;97.60;;;;;;5078448;28;20048;-26
2023/05/03 07:23:38;;;;;;;4.80;1.00;;;11.00;1.00;;;;;;5094539;28;20131;-26
2023/05/03 07:26:04;;;;;;;5.97;0.60;;;11.00;1.00;;;;;;5095645;28;20470;-26
2023/05/03 07:28:29;;;;;;;5.70;0.63;;;11.10;1.00;;;;;;5095661;28;20093;-26
2023/05/03 07:30:55;;;;;;;3.58;1.52;;;11.20;1.00;;;;;;5096094;28;20378;-26
2023/05/03 07:33:21;;;;;;;2.35;0.50;;;11.30;99.90;;;;;;5096369;28;20123;-27
2023/05/03 07:35:47;;;;;;;1.67;0.57;;;11.40;99.90;;;;;;5095434;28;20398;-26
2023/05/03 07:38:14;;;;;;;2.72;0.88;;;11.30;99.90;;;;;;5096263;28;20051;-26
2023/05/03 07:40:40;;;;;;;5.13;0.77;;;11.30;99.90;;;;;;5095346;28;20174;-27
2023/05/03 07:43:08;;;;;;;2.05;0.60;;;11.40;99.90;;;;;;5095292;28;20048;-26
2023/05/03 07:45:37;;;;;;;2.50;0.40;;;11.50;99.90;;;;;;5095368;28;20101;-26
2023/05/03 07:48:05;;;;;;;3.78;0.60;;;11.60;4.50;;;;;;5095974;28;20051;-26
2023/05/03 07:50:31;;;;;;;2.33;0.40;;;11.60;1.00;;;;;;5095982;28;20055;-26
2023/05/03 07:52:57;;;;;;;4.60;0.57;;;11.70;1.00;;;;;;5077025;28;20048;-26
2023/05/03 07:55:24;;;;;;;2.38;0.38;;;11.70;1.00;;;;;;5094989;28;20481;-26
2023/05/03 07:57:50;;;;;;;3.60;0.43;;;11.60;99.90;;;;;;5095027;28;20059;-26
2023/05/03 08:00:17;;;;;;;2.00;0.47;;;11.60;99.90;;;;;;5094937;28;20052;-26
2023/05/03 08:02:42;;;;;;;1.95;0.80;;;11.60;1.00;;;;;;5093862;28;20468;-26
2023/05/03 08:05:12;;;;;;;3.45;0.60;;;11.60;1.00;;;;;;5093570;28;20127;-26
2023/05/03 08:07:38;;;;;;;2.97;0.68;;;11.60;99.90;;;;;;5094848;28;20109;-26
2023/05/03 08:10:04;;;;;;;3.83;0.65;;;11.40;99.90;;;;;;5094825;28;20044;-26
2023/05/03 08:12:30;;;;;;;7.28;3.53;;;11.30;99.90;;;;;;5094605;28;20379;-26
2023/05/03 08:14:56;;;;;;;3.88;1.35;;;11.30;99.90;;;;;;5093732;28;20054;-26
2023/05/03 08:17:22;;;;;;;2.92;0.63;;;11.40;1.00;;;;;;5093207;28;20044;-26
2023/05/03 08:19:48;;;;;;;3.45;0.52;;;11.50;1.00;;;;;;5094960;28;20375;-26
2023/05/03 08:22:15;;;;;;;3.85;0.63;;;11.60;99.90;;;;;;5076636;28;20048;-26
2023/05/03 08:24:41;;;;;;;4.10;0.70;;;11.50;99.90;;;;;;5094448;28;20056;-26
2023/05/03 08:27:08;;;;;;;4.45;0.50;;;11.30;99.90;;;;;;5094489;28;20040;-26
2023/05/03 08:29:36;;;;;;;3.20;0.60;;;11.00;99.90;;;;;;5094815;28;20040;-26
2023/05/03 08:32:03;;;;;;;4.75;0.40;;;10.90;99.90;;;;;;5094484;28;20051;-26
2023/05/03 08:34:29;;;;;;;2.97;0.32;;;10.90;99.90;;;;;;5094104;28;20497;-26
2023/05/03 08:36:56;;;;;;;2.72;0.57;;;11.00;99.90;;;;;;5094289;28;20067;-26
2023/05/03 08:39:23;;;;;;;3.17;0.40;;;11.10;99.90;;;;;;5093386;28;20119;-26
2023/05/03 08:41:50;;;;;;;3.63;0.98;;;11.00;99.90;;;;;;5094247;28;20052;-26
2023/05/03 08:44:27;;;;;;;4.38;0.50;;;11.00;99.90;;;;;;5094167;28;20052;-26
2023/05/03 08:46:53;;;;;;;3.60;0.60;;;11.10;99.90;;;;;;5094715;28;20044;-26
2023/05/03 08:49:20;;;;;;;2.30;0.50;;;11.10;99.90;;;;;;5092857;28;20061;-26
2023/05/03 08:51:48;;;;;;;3.85;0.60;;;11.00;99.90;;;;;;5093958;28;20466;-26
2023/05/03 08:54:14;;;;;;;4.88;0.50;;;11.00;99.90;;;;;;5076672;28;20048;-26
2023/05/03 08:56:42;;;;;;;5.20;0.60;;;11.00;99.90;;;;;;5093977;28;20090;-26
2023/05/03 08:59:11;;;;;;;4.95;0.80;;;11.10;99.90;;;;;;5093171;28;20547;-26
2023/05/03 09:01:38;;;;;;;3.25;0.70;;;11.20;99.90;;;;;;5093897;28;20447;-26
2023/05/03 09:04:05;;;;;;;1.50;0.50;;;11.20;99.90;;;;;;5094696;28;20082;-26
2023/05/03 09:06:34;;;;;;;3.70;0.70;;;11.20;99.90;;;;;;5094665;28;20044;-27
2023/05/03 09:09:04;;;;;;;4.75;0.85;;;11.30;99.90;;;;;;5094112;28;20044;-26
2023/05/03 09:11:31;;;;;;;5.57;0.60;;;11.30;99.90;;;;;;5094073;28;20176;-26
2023/05/03 09:14:17;;;;;;;3.75;0.60;;;11.20;99.90;;;;;;5092155;28;20100;-26
2023/05/03 09:16:44;;;;;;;6.05;0.55;;;11.20;99.90;;;;;;5094523;28;20374;-26
2023/05/03 09:19:11;;;;;;;2.60;0.82;;;11.20;99.90;;;;;;5094308;28;20064;-26
2023/05/03 09:21:42;;;;;;;2.17;0.50;;;11.20;99.90;;;;;;5093347;28;20378;-26
2023/05/03 09:24:19;;;;;;;3.30;0.60;;;11.20;99.90;;;;;;5093504;28;20489;-26
2023/05/03 09:26:47;;;;;;;3.38;0.63;;;11.30;99.90;;;;;;5093543;28;20131;-27
2023/05/03 09:29:34;;;;;;;3.75;0.63;;;11.40;99.90;;;;;;5093585;28;20047;-26
2023/05/03 09:32:04;;;;;;;6.50;0.63;;;11.80;99.90;;;;;;5093552;28;20044;-26
2023/05/03 09:34:31;;;;;;;3.92;0.43;;;12.00;99.90;;;;;;5092537;28;20060;-26
2023/05/03 09:36:57;;;;;;;3.58;0.40;;;11.90;99.90;;;;;;5093461;28;20085;-26
2023/05/03 09:39:23;;;;;;;3.05;0.80;;;11.70;56.80;;;;;;5093574;28;20048;-28
2023/05/03 09:41:49;;;;;;;3.15;0.80;;;11.60;99.90;;;;;;5094099;28;20059;-26
2023/05/03 09:44:16;;;;;;;1.88;0.40;;;11.50;23.50;;;;;;5093370;28;20130;-26
2023/05/03 09:47:04;;;;;;;3.70;0.63;;;11.40;1.00;;;;;;5093288;28;20044;-27
2023/05/03 09:49:33;;;;;;;2.92;0.57;;;11.40;25.10;;;;;;5093821;28;20052;-27
2023/05/03 09:52:00;;;;;;;3.97;0.60;;;11.60;99.90;;;;;;5093462;28;20128;-26
2023/05/03 09:54:30;;;;;;;4.72;0.75;;;11.80;99.90;;;;;;5093920;28;20451;-27
2023/05/03 09:56:56;;;;;;;5.78;0.70;;;12.10;99.90;;;;;;5093508;28;20117;-26
2023/05/03 09:59:22;;;;;;;6.00;0.60;;;12.30;99.90;;;;;;5076280;28;20135;-26
2023/05/03 10:01:51;;;;;;;4.18;0.80;;;12.70;99.90;;;;;;5092157;28;20390;-27
2023/05/03 10:04:19;;;;;;;4.53;0.60;;;12.80;1.00;;;;;;5092985;28;20638;-26
2023/05/03 10:06:48;;;;;;;3.60;0.77;;;12.50;1.00;;;;;;5093869;28;20048;-26
2023/05/03 10:09:38;;;;;;;4.20;0.80;;;12.50;1.00;;;;;;5093230;28;20398;-27
2023/05/03 10:12:07;;;;;;;3.63;1.00;;;12.40;75.30;;;;;;5093485;28;20063;-27
2023/05/03 10:14:33;;;;;;;4.95;0.95;;;12.70;25.10;;;;;;5093471;28;20455;-27
2023/05/03 10:17:02;;;;;;;3.25;0.47;;;12.80;1.00;;;;;;5092713;28;20478;-26
2023/05/03 10:19:46;;;;;;;4.03;0.93;;;13.00;1.00;;;;;;5093499;28;20514;-26
2023/05/03 10:22:12;;;;;;;8.13;0.60;;;13.10;1.00;;;;;;5093142;28;20056;-27
2023/05/03 10:25:01;;;;;;;3.78;0.68;;;13.20;1.00;;;;;;5093362;28;20054;-28
2023/05/03 10:27:41;;;;;;;4.13;0.65;;;13.20;1.00;;;;;;5090135;28;20452;-27
2023/05/03 10:30:25;;;;;;;3.72;0.77;;;13.30;99.90;;;;;;5097387;28;20449;-27
2023/05/03 10:32:51;;;;;;;4.60;0.60;;;13.20;99.90;;;;;;5095596;28;20493;-26
2023/05/03 10:35:18;;;;;;;4.93;0.75;;;13.00;99.90;;;;;;5096518;28;20048;-26
2023/05/03 10:37:47;;;;;;;4.25;0.73;;;12.90;99.90;;;;;;5097425;28;20048;-27
2023/05/03 10:40:14;;;;;;;2.35;0.82;;;12.90;99.90;;;;;;5096468;28;20118;-27
2023/05/03 10:42:59;;;;;;;2.22;0.68;;;12.80;99.90;;;;;;5096999;28;20090;-28
2023/05/03 10:45:27;;;;;;;1.98;0.60;;;12.70;99.90;;;;;;5097055;28;20047;-26
2023/05/03 10:48:11;;;;;;;8.25;0.95;;;12.60;99.90;;;;;;5096270;28;20470;-26
2023/05/03 10:50:40;;;;;;;3.28;0.93;;;12.50;99.90;;;;;;5096857;28;20048;-26
2023/05/03 10:53:07;;;;;;;4.93;0.68;;;12.60;99.90;;;;;;5096282;28;20109;-26
2023/05/03 10:55:32;;;;;;;3.17;0.70;;;12.80;99.90;;;;;;5096185;28;20040;-26
2023/05/03 10:58:00;;;;;;;4.43;1.60;;;13.00;99.90;;;;;;5095320;28;20048;-27
2023/05/03 11:00:39;;;;;;;3.35;0.80;;;13.10;99.90;;;;;;5078423;28;20096;-26
2023/05/03 11:03:28;;;;;;;2.38;0.90;;;13.00;99.90;;;;;;5096954;28;20191;-26
2023/05/03 11:05:54;;;;;;;3.22;0.60;;;12.70;99.90;;;;;;5096932;28;20044;-26
2023/05/03 11:08:28;;;;;;;3.60;0.60;;;13.10;99.90;;;;;;5095960;28;20485;-26
2023/05/03 11:10:59;;;;;;;2.88;0.82;;;13.40;99.90;;;;;;5095984;28;20083;-27
2023/05/03 11:13:25;;;;;;;3.08;0.68;;;13.80;99.90;;;;;;5095775;28;20043;-27
2023/05/03 11:15:53;;;;;;;3.78;0.50;;;13.70;99.90;;;;;;5094209;28;20040;-26
2023/05/03 11:18:19;;;;;;;3.50;0.77;;;13.70;99.90;;;;;;5095164;28;20064;-27
2023/05/03 11:20:45;;;;;;;2.60;0.50;;;13.80;99.90;;;;;;5094447;28;20339;-26
2023/05/03 11:23:11;;;;;;;5.10;0.70;;;13.40;99.90;;;;;;5095586;28;20144;-27
2023/05/03 11:25:38;;;;;;;5.38;0.90;;;13.70;99.90;;;;;;5095685;28;20044;-27
2023/05/03 11:28:04;;;;;;;3.75;1.08;;;13.90;99.90;;;;;;5094665;28;20058;-25
2023/05/03 11:30:33;;;;;;;5.43;0.63;;;13.90;99.90;;;;;;5095570;28;20043;-26
2023/05/03 11:33:00;;;;;;;2.13;0.50;;;14.10;99.90;;;;;;5095508;28;20047;-26
2023/05/03 11:35:28;;;;;;;7.22;0.93;;;14.20;99.90;;;;;;5095267;28;20088;-26
2023/05/03 11:37:55;;;;;;;2.30;0.60;;;14.00;99.90;;;;;;5095438;28;20478;-26
2023/05/03 11:40:21;;;;;;;3.95;0.88;;;14.10;99.90;;;;;;5094667;28;20063;-26
2023/05/03 11:42:57;;;;;;;4.30;0.65;;;13.80;99.90;;;;;;5095031;28;20565;-26
2023/05/03 11:45:31;;;;;;;2.53;0.57;;;14.10;99.90;;;;;;5094275;28;20478;-26
2023/05/03 11:47:57;;;;;;;5.10;0.65;;;13.90;99.90;;;;;;5094539;28;20535;-26
2023/05/03 11:50:49;;;;;;;3.15;0.80;;;13.80;99.90;;;;;;5095085;28;20048;-26
2023/05/03 11:53:17;;;;;;;3.92;0.50;;;13.80;99.90;;;;;;5095723;28;20430;-27
2023/05/03 11:55:47;;;;;;;4.28;0.60;;;13.80;99.90;;;;;;5094608;28;20440;-26
2023/05/03 11:58:18;;;;;;;3.35;0.88;;;14.10;99.90;;;;;;5095273;28;20055;-26
2023/05/03 12:00:46;;;;;;;1.98;0.43;;;14.60;99.90;;;;;;5095016;28;20127;-27
2023/05/03 12:03:24;;;;;;;4.07;0.70;;;14.70;99.90;;;;;;5093693;28;20040;-27
2023/05/03 12:05:54;;;;;;;4.03;0.70;;;14.80;99.90;;;;;;5096029;28;20079;-26
2023/05/03 12:08:20;;;;;;;4.25;0.85;;;14.90;99.90;;;;;;5093565;28;20097;-27
2023/05/03 12:10:49;;;;;;;3.72;0.98;;;14.80;99.90;;;;;;5094693;28;20479;-26
2023/05/03 12:13:34;;;;;;;4.07;1.08;;;15.00;99.90;;;;;;5076541;28;20079;-26
2023/05/03 12:16:01;;;;;;;6.78;0.90;;;14.90;99.90;;;;;;5095366;28;20097;-26
2023/05/03 12:18:27;;;;;;;4.03;0.63;;;14.80;99.90;;;;;;5091470;28;20135;-26
2023/05/03 12:20:57;;;;;;;3.40;0.80;;;14.80;99.90;;;;;;5073358;28;20131;-26
2023/05/03 12:23:23;;;;;;;3.60;1.00;;;15.00;99.90;;;;;;5076149;28;20047;-28
2023/05/03 12:25:52;;;;;;;5.00;2.30;;;15.30;99.90;;;;;;5077705;28;20048;-26
2023/05/03 12:28:18;;;;;;;3.05;1.10;;;15.40;99.90;;;;;;5075448;28;21515;-26
2023/05/03 12:30:44;;;;;;;2.15;0.93;;;15.40;99.90;;;;;;5077483;28;20064;-25
2023/05/03 12:33:10;;;;;;;3.85;1.30;;;15.00;99.90;;;;;;5078230;28;20084;-25
2023/05/03 12:35:36;;;;;;;4.57;0.80;;;14.70;99.90;;;;;;5074589;28;20071;-24
2023/05/03 12:38:03;;;;;;;3.15;1.02;;;14.80;99.90;;;;;;5081401;28;20410;-26
2023/05/03 12:40:28;;;;;;;4.57;1.10;;;14.80;99.90;;;;;;5076385;28;20052;-26
2023/05/03 12:42:57;;;;;;;2.75;1.00;;;15.10;99.90;;;;;;5073737;28;20117;-27
2023/05/03 12:45:22;;;;;;;3.70;0.77;;;15.20;99.90;;;;;;5073958;28;20086;-26
2023/05/03 12:47:48;;;;;;;2.28;0.50;;;15.00;93.90;;;;;;5077966;28;20044;-24
2023/05/03 12:50:14;;;;;;;3.33;1.02;;;15.00;99.90;;;;;;5084990;28;20482;-26
2023/05/03 12:52:40;;;;;;;3.70;0.90;;;15.20;99.90;;;;;;5093920;28;20052;-26
2023/05/03 12:55:06;;;;;;;3.03;0.55;;;15.70;99.90;;;;;;5094084;28;20488;-27
2023/05/03 12:57:32;;;;;;;5.95;0.70;;;16.80;90.50;;;;;;5093943;28;20048;-27
2023/05/03 12:59:58;;;;;;;1.42;0.60;;;17.20;45.00;;;;;;5093021;28;20055;-26
2023/05/03 13:02:24;;;;;;;3.33;1.08;;;16.70;5.70;;;;;;5092980;28;20036;-26